Phillips, Texas
Current Conditions -  °F | °C
As of 5:51 PM on Friday 24 Oct 2014 (Local Time) from KBGD Reporting Station
Clear Clear  
Wind Chill: 87°   Ceiling: Unl
Heat Index: 87°   Visibility: 10mi
Dew Point: 40°   Wind: 3mph
Humidity: 19%   Direction: 210°SSW
Pressure: 30.06"   Gusts: NA
Location:  35.7207°N, 101.246°W
Report Text: KBGD 242251Z AUTO 21003KT 10SM CLR 31/04 A3006 RMK AO2 SLP145 T03060044
Loading
Personal Weather Stations






























Interactive Weather Map
Tropical Storm Tracking
New forecast layout! Learn more

10-Day Weather Forecast

Advertisements
Track Severe Weather on mobile